Time;durP1;ratioP1;P1;durP2;ratioP2;P2;SDS_P1;SDS_P2;PMS_P1;PMS_P2;Temp;Humidity;BMP_temperature;BMP_pressure;BME280_temperature;BME280_humidity;BME280_pressure;Samples;Min_cycle;Max_cycle;Signal;HPM_P1;HPM_P2
2022/05/15 00:02:09;;;;;;;;;;;;;;;11.70;100.00;97764.06;1723623;83;20089;-71
2022/05/15 00:04:36;;;;;;;;;;;;;;;11.70;100.00;97790.32;1719618;83;20168;-70
2022/05/15 00:07:05;;;;;;;;;;;;;;;11.71;100.00;97820.41;1719498;83;20098;-70
2022/05/15 00:09:31;;;;;;;;;;;;;;;11.71;100.00;97836.11;1719809;83;20117;-70
2022/05/15 00:11:59;;;;;;;;;;;;;;;11.73;100.00;97854.84;1719869;83;20125;-72
2022/05/15 00:14:27;;;;;;;;;;;;;;;11.77;100.00;97867.69;1719488;83;20098;-71
2022/05/15 00:16:54;;;;;;;;;;;;;;;11.77;100.00;97892.05;1719857;83;20129;-71
2022/05/15 00:19:20;;;;;;;;;;;;;;;11.77;100.00;97913.72;1719532;84;20136;-70
2022/05/15 00:21:48;;;;;;;;;;;;;;;11.76;100.00;97938.31;1719902;83;20167;-70
2022/05/15 00:24:17;;;;;;;;;;;;;;;11.74;100.00;97961.55;1719456;84;20132;-70
2022/05/15 00:26:44;;;;;;;;;;;;;;;11.72;100.00;97992.59;1719609;84;20121;-70
2022/05/15 00:29:11;;;;;;;;;;;;;;;11.69;100.00;98014.73;1719627;84;20109;-69
2022/05/15 00:31:39;;;;;;;;;;;;;;;11.69;100.00;98045.87;1682845;84;20115;-70
2022/05/15 00:34:06;;;;;;;;;;;;;;;11.67;100.00;98075.88;1696314;83;20100;-71
2022/05/15 00:36:34;;;;;;;;;;;;;;;11.66;100.00;98108.05;1696573;85;20115;-70
2022/05/15 00:39:01;;;;;;;;;;;;;;;11.65;100.00;98154.28;1696361;85;20115;-69
2022/05/15 00:41:29;;;;;;;;;;;;;;;11.62;100.00;98195.36;1671341;85;20091;-69
2022/05/15 00:43:57;;;;;;;;;;;;;;;11.58;100.00;98224.75;1696499;84;20111;-70
2022/05/15 00:48:55;;;;;;;;;;;;;;;11.51;100.00;98283.00;1611825;88;20098;-70
2022/05/15 00:51:27;;;;;;;;;;;;;;;11.46;100.00;98313.95;1611700;89;20119;-69
2022/05/15 00:54:14;;;;;;;;;;;;;;;11.43;100.00;98340.09;1611749;89;20422;-71
2022/05/15 00:56:45;;;;;;;;;;;;;;;11.39;100.00;98372.70;1611833;89;20106;-70
2022/05/15 00:59:14;;;;;;;;;;;;;;;11.34;100.00;98392.81;1588152;89;20161;-71
2022/05/15 01:01:41;;;;;;;;;;;;;;;11.30;100.00;98423.53;1619532;85;20463;-70
2022/05/15 01:04:08;;;;;;;;;;;;;;;11.24;100.00;98456.84;1638863;88;20142;-71
2022/05/15 01:06:36;;;;;;;;;;;;;;;11.18;100.00;98476.66;1638787;88;20147;-69
2022/05/15 01:09:04;;;;;;;;;;;;;;;11.14;100.00;98495.19;1638955;88;20104;-70
2022/05/15 01:11:33;;;;;;;;;;;;;;;11.11;100.00;98517.77;1638839;86;20112;-70
2022/05/15 01:14:05;;;;;;;;;;;;;;;11.07;100.00;98525.48;1638705;88;20139;-71
2022/05/15 01:16:31;;;;;;;;;;;;;;;11.05;100.00;98537.53;1617798;88;20139;-69
2022/05/15 01:18:59;;;;;;;;;;;;;;;11.02;100.00;98540.98;1638732;88;20108;-70
2022/05/15 01:21:31;;;;;;;;;;;;;;;10.99;100.00;98545.45;1638969;88;20392;-70
2022/05/15 01:24:00;;;;;;;;;;;;;;;10.96;100.00;98549.95;1638876;88;20116;-71
2022/05/15 01:26:29;;;;;;;;;;;;;;;10.94;100.00;98554.73;1638639;88;20173;-69
2022/05/15 01:28:56;;;;;;;;;;;;;;;10.93;100.00;98554.94;1638857;86;20119;-71
2022/05/15 01:31:24;;;;;;;;;;;;;;;10.90;100.00;98551.30;1651953;86;20417;-69
2022/05/15 01:33:51;;;;;;;;;;;;;;;10.87;100.00;98558.47;1675785;86;20144;-69
2022/05/15 01:36:20;;;;;;;;;;;;;;;10.82;100.00;98565.88;1676335;86;20093;-71
2022/05/15 01:38:47;;;;;;;;;;;;;;;10.78;100.00;98570.02;1676232;86;20487;-70
2022/05/15 01:41:14;;;;;;;;;;;;;;;10.74;100.00;98573.66;1675726;86;20113;-70
2022/05/15 01:43:43;;;;;;;;;;;;;;;10.71;100.00;98574.09;1676043;86;20136;-70
2022/05/15 01:46:10;;;;;;;;;;;;;;;10.67;100.00;98584.16;1655780;84;20131;-69
2022/05/15 01:48:38;;;;;;;;;;;;;;;10.62;100.00;98588.33;1704775;84;20103;-70
2022/05/15 01:51:05;;;;;;;;;;;;;;;10.59;100.00;98600.90;1729562;83;20437;-71
2022/05/15 01:53:33;;;;;;;;;;;;;;;10.55;100.00;98599.66;1729821;83;20152;-70
2022/05/15 01:56:02;;;;;;;;;;;;;;;10.52;100.00;98602.77;1729374;82;20143;-70
2022/05/15 01:58:30;;;;;;;;;;;;;;;10.50;100.00;98593.18;1729465;83;20160;-72
2022/05/15 02:00:57;;;;;;;;;;;;;;;10.46;100.00;98596.81;1729392;83;20148;-70
2022/05/15 02:03:25;;;;;;;;;;;;;;;10.45;100.00;98597.87;1729930;82;20140;-70
2022/05/15 02:05:54;;;;;;;;;;;;;;;10.42;100.00;98590.16;1729648;83;20116;-69
2022/05/15 02:08:22;;;;;;;;;;;;;;;10.40;100.00;98589.55;1729907;83;20440;-68
2022/05/15 02:10:49;;;;;;;;;;;;;;;10.38;100.00;98593.80;1729816;82;20132;-71
2022/05/15 02:13:16;;;;;;;;;;;;;;;10.36;100.00;98587.77;1729800;83;20133;-69
2022/05/15 02:15:43;;;;;;;;;;;;;;;10.33;100.00;98586.83;1729985;83;20132;-69
2022/05/15 02:18:10;;;;;;;;;;;;;;;10.31;100.00;98582.64;1729680;83;20143;-70
2022/05/15 02:20:38;;;;;;;;;;;;;;;10.29;100.00;98589.59;1730153;83;20125;-69
2022/05/15 02:23:05;;;;;;;;;;;;;;;10.27;100.00;98591.67;1730035;83;20451;-69
2022/05/15 02:25:32;;;;;;;;;;;;;;;10.26;100.00;98593.52;1709503;83;20148;-69
2022/05/15 02:27:59;;;;;;;;;;;;;;;10.24;100.00;98597.48;1729987;83;20127;-70
2022/05/15 02:30:26;;;;;;;;;;;;;;;10.23;100.00;98602.55;1730129;82;20128;-69
2022/05/15 02:32:54;;;;;;;;;;;;;;;10.21;100.00;98601.41;1765297;81;20104;-70
2022/05/15 02:35:21;;;;;;;;;;;;;;;10.22;100.00;98608.48;1765570;81;20137;-69
2022/05/15 02:37:48;;;;;;;;;;;;;;;10.20;100.00;98606.52;1734968;83;20101;-70
2022/05/15 02:40:17;;;;;;;;;;;;;;;10.21;100.00;98606.81;1734913;83;20156;-70
2022/05/15 02:42:44;;;;;;;;;;;;;;;10.20;100.00;98603.81;1734868;83;20429;-69
2022/05/15 02:45:11;;;;;;;;;;;;;;;10.21;100.00;98611.39;1734760;81;20108;-70
2022/05/15 02:47:39;;;;;;;;;;;;;;;10.20;100.00;98611.91;1704448;83;20136;-69
2022/05/15 02:52:53;;;;;;;;;;;;;;;10.18;100.00;98615.84;1734997;83;20100;-70
2022/05/15 02:55:22;;;;;;;;;;;;;;;10.20;100.00;98628.13;1734586;83;20108;-67
2022/05/15 02:57:50;;;;;;;;;;;;;;;10.20;100.00;98626.77;1734712;83;20247;-69
2022/05/15 03:00:19;;;;;;;;;;;;;;;10.22;100.00;98638.20;1734941;83;20410;-69
2022/05/15 03:02:45;;;;;;;;;;;;;;;10.24;100.00;98641.53;1734921;82;20104;-69
2022/05/15 03:05:13;;;;;;;;;;;;;;;10.28;100.00;98646.00;1734574;83;20100;-69
2022/05/15 03:07:42;;;;;;;;;;;;;;;10.30;100.00;98639.88;1703779;83;20124;-68
2022/05/15 03:10:10;;;;;;;;;;;;;;;10.30;100.00;98643.92;1734808;81;20413;-69
2022/05/15 03:12:37;;;;;;;;;;;;;;;10.31;100.00;98650.19;1704052;83;20417;-68
2022/05/15 03:15:05;;;;;;;;;;;;;;;10.31;100.00;98657.80;1734668;83;20125;-70
2022/05/15 03:17:34;;;;;;;;;;;;;;;10.33;100.00;98649.48;1734934;83;20105;-68
2022/05/15 03:20:03;;;;;;;;;;;;;;;10.36;100.00;98662.08;1734740;83;20097;-70
2022/05/15 03:22:30;;;;;;;;;;;;;;;10.39;100.00;98654.92;1704017;83;20113;-68
2022/05/15 03:24:57;;;;;;;;;;;;;;;10.43;100.00;98659.40;1734472;83;20142;-70
2022/05/15 03:27:24;;;;;;;;;;;;;;;10.47;100.00;98654.42;1734880;81;20125;-70
2022/05/15 03:29:51;;;;;;;;;;;;;;;10.51;100.00;98657.84;1734888;83;20127;-70
2022/05/15 03:32:18;;;;;;;;;;;;;;;10.54;100.00;98662.84;1734828;83;20160;-69
2022/05/15 03:34:45;;;;;;;;;;;;;;;10.59;100.00;98670.35;1734939;83;20108;-69
2022/05/15 03:37:12;;;;;;;;;;;;;;;10.63;100.00;98676.47;1735014;83;20104;-71
2022/05/15 03:39:39;;;;;;;;;;;;;;;10.69;100.00;98686.98;1734581;81;20139;-69
2022/05/15 03:42:07;;;;;;;;;;;;;;;10.74;100.00;98686.38;1734882;83;20155;-68
2022/05/15 03:44:37;;;;;;;;;;;;;;;10.79;100.00;98691.48;1734691;83;20129;-69
2022/05/15 03:47:06;;;;;;;;;;;;;;;10.88;100.00;98698.88;1735019;83;20124;-69
2022/05/15 03:49:33;;;;;;;;;;;;;;;10.96;100.00;98701.89;1619182;88;20140;-69
2022/05/15 03:52:02;;;;;;;;;;;;;;;11.05;100.00;98703.38;1640826;88;20172;-69
2022/05/15 03:54:29;;;;;;;;;;;;;;;11.13;100.00;98702.34;1640619;88;20155;-70
2022/05/15 03:56:56;;;;;;;;;;;;;;;11.20;100.00;98706.70;1640914;88;20133;-69
2022/05/15 03:59:27;;;;;;;;;;;;;;;11.28;100.00;98712.45;1641334;88;20401;-69
2022/05/15 04:01:54;;;;;;;;;;;;;;;11.35;100.00;98717.34;1647348;86;20167;-69
2022/05/15 04:04:22;;;;;;;;;;;;;;;11.45;100.00;98730.97;1620726;89;20150;-69
2022/05/15 04:06:49;;;;;;;;;;;;;;;11.52;100.00;98735.33;1647059;87;20479;-70
2022/05/15 04:09:15;;;;;;;;;;;;;;;11.64;100.00;98742.30;1620998;87;20109;-71
2022/05/15 04:11:43;;;;;;;;;;;;;;;11.73;100.00;98745.09;1647161;87;20112;-70
2022/05/15 04:14:10;;;;;;;;;;;;;;;11.84;100.00;98759.88;1620923;89;20149;-70
2022/05/15 04:16:39;;;;;;;;;;;;;;;11.95;100.00;98782.80;1647160;87;20432;-72
2022/05/15 04:19:06;;;;;;;;;;;;;;;12.04;100.00;98801.88;1620873;89;20121;-69
2022/05/15 04:21:37;;;;;;;;;;;;;;;12.15;100.00;98818.02;1648088;87;20116;-71
2022/05/15 04:24:03;;;;;;;;;;;;;;;12.26;100.00;98833.61;1647349;87;20447;-73
2022/05/15 04:26:30;;;;;;;;;;;;;;;12.40;100.00;98844.44;1620900;89;20133;-69
2022/05/15 04:28:57;;;;;;;;;;;;;;;12.52;100.00;98863.91;1647076;87;20132;-70
2022/05/15 04:31:24;;;;;;;;;;;;;;;12.71;100.00;98878.96;1620909;89;20146;-69
2022/05/15 04:33:52;;;;;;;;;;;;;;;12.90;100.00;98877.23;1647103;86;20150;-73
2022/05/15 04:36:22;;;;;;;;;;;;;;;13.10;100.00;98898.35;1620967;89;20129;-71
2022/05/15 04:38:50;;;;;;;;;;;;;;;13.29;100.00;98908.78;1646989;84;20143;-74
2022/05/15 04:41:16;;;;;;;;;;;;;;;13.45;100.00;98935.17;1621175;89;20412;-72
2022/05/15 04:43:44;;;;;;;;;;;;;;;13.61;100.00;98952.31;1647115;87;20116;-71
2022/05/15 04:46:11;;;;;;;;;;;;;;;13.75;100.00;98964.47;1630910;87;20197;-71
2022/05/15 04:48:38;;;;;;;;;;;;;;;13.88;100.00;98971.70;1643716;87;20437;-70
2022/05/15 04:51:05;;;;;;;;;;;;;;;14.05;100.00;98971.48;1643393;87;20140;-70
2022/05/15 04:53:32;;;;;;;;;;;;;;;14.24;100.00;98978.66;1643261;86;20176;-72
2022/05/15 04:55:59;;;;;;;;;;;;;;;14.43;100.00;98986.91;1643583;86;20156;-72
2022/05/15 04:58:26;;;;;;;;;;;;;;;14.61;100.00;98999.22;1668028;84;20107;-71
2022/05/15 05:00:53;;;;;;;;;;;;;;;14.75;100.00;99022.20;1705214;84;20142;-70
2022/05/15 05:03:20;;;;;;;;;;;;;;;14.79;100.00;99050.13;1734877;80;20089;-70
2022/05/15 05:05:46;;;;;;;;;;;;;;;14.80;100.00;99057.24;1702366;83;20115;-71
2022/05/15 05:08:14;;;;;;;;;;;;;;;14.93;100.00;99055.46;1738314;83;20159;-69
2022/05/15 05:10:42;;;;;;;;;;;;;;;15.05;100.00;99052.31;1738438;83;20139;-70
2022/05/15 05:13:09;;;;;;;;;;;;;;;15.19;100.00;99057.92;1738406;83;20111;-71
2022/05/15 05:15:37;;;;;;;;;;;;;;;15.27;100.00;99075.84;1724176;83;20426;-69
2022/05/15 05:18:04;;;;;;;;;;;;;;;15.32;100.00;99076.01;1734832;82;20132;-71
2022/05/15 05:20:31;;;;;;;;;;;;;;;15.43;100.00;99083.13;1734903;83;20428;-71
2022/05/15 05:22:58;;;;;;;;;;;;;;;15.44;100.00;99097.89;1734905;83;20112;-73
2022/05/15 05:25:25;;;;;;;;;;;;;;;15.42;100.00;99110.05;1734478;83;20132;-73
2022/05/15 05:27:52;;;;;;;;;;;;;;;15.42;100.00;99108.70;1734486;83;20424;-73
2022/05/15 05:30:21;;;;;;;;;;;;;;;15.49;100.00;99118.48;1734921;83;20104;-73
2022/05/15 05:32:48;;;;;;;;;;;;;;;15.49;100.00;99138.06;1695181;83;20119;-72
2022/05/15 05:35:17;;;;;;;;;;;;;;;15.53;100.00;99144.21;1692415;84;20104;-73
2022/05/15 05:37:44;;;;;;;;;;;;;;;15.60;100.00;99144.66;1692650;85;20396;-72
2022/05/15 05:40:11;;;;;;;;;;;;;;;15.69;100.00;99144.14;1692454;85;20143;-70
2022/05/15 05:42:39;;;;;;;;;;;;;;;15.82;100.00;99142.36;1692338;83;20136;-70
2022/05/15 05:45:06;;;;;;;;;;;;;;;15.96;100.00;99149.86;1692683;83;20111;-72
2022/05/15 05:47:33;;;;;;;;;;;;;;;16.08;100.00;99163.04;1692551;83;20111;-72
2022/05/15 05:50:00;;;;;;;;;;;;;;;16.17;100.00;99169.02;1692342;85;20138;-72
2022/05/15 05:52:27;;;;;;;;;;;;;;;16.23;100.00;99171.64;1692548;85;20423;-71
2022/05/15 05:54:54;;;;;;;;;;;;;;;16.38;100.00;99165.80;1692577;85;20412;-72
2022/05/15 05:57:20;;;;;;;;;;;;;;;16.50;100.00;99183.05;1692832;84;20131;-73
2022/05/15 05:59:47;;;;;;;;;;;;;;;16.51;100.00;99196.98;1692628;85;20186;-68
2022/05/15 06:02:14;;;;;;;;;;;;;;;16.51;100.00;99196.16;1692735;85;20091;-68
2022/05/15 06:04:42;;;;;;;;;;;;;;;16.70;100.00;99188.77;1690002;84;20104;-71
2022/05/15 06:07:17;;;;;;;;;;;;;;;17.00;100.00;99185.21;1690028;84;20131;-71
2022/05/15 06:09:45;;;;;;;;;;;;;;;17.25;100.00;99190.48;1645277;87;20144;-71
2022/05/15 06:12:12;;;;;;;;;;;;;;;17.31;100.00;99222.84;1647218;87;20144;-70
2022/05/15 06:14:40;;;;;;;;;;;;;;;17.25;100.00;99229.55;1645661;87;20170;-71
2022/05/15 06:17:08;;;;;;;;;;;;;;;17.40;100.00;99228.26;1645013;87;20119;-69
2022/05/15 06:19:35;;;;;;;;;;;;;;;17.57;100.00;99242.08;1668522;84;20114;-70
2022/05/15 06:22:02;;;;;;;;;;;;;;;17.77;100.00;99234.88;1668643;86;20142;-70
2022/05/15 06:24:29;;;;;;;;;;;;;;;18.07;100.00;99240.79;1668646;86;20438;-73
2022/05/15 06:26:58;;;;;;;;;;;;;;;18.25;100.00;99263.06;1668629;86;20122;-71
2022/05/15 06:29:25;;;;;;;;;;;;;;;18.32;100.00;99272.80;1668798;86;20118;-71
2022/05/15 06:31:52;;;;;;;;;;;;;;;18.42;100.00;99270.83;1668505;84;20132;-69
2022/05/15 06:34:19;;;;;;;;;;;;;;;18.66;100.00;99271.61;1668445;86;20132;-71
2022/05/15 06:36:45;;;;;;;;;;;;;;;18.87;100.00;99284.36;1668586;86;20109;-71
2022/05/15 06:39:12;;;;;;;;;;;;;;;18.89;100.00;99296.75;1668524;86;20122;-73
2022/05/15 06:41:39;;;;;;;;;;;;;;;18.96;100.00;99300.17;1668701;86;20933;-72
2022/05/15 06:44:08;;;;;;;;;;;;;;;18.94;100.00;99313.80;1668789;84;20118;-70
2022/05/15 06:46:34;;;;;;;;;;;;;;;18.81;100.00;99328.59;1668766;86;20121;-72
2022/05/15 06:49:01;;;;;;;;;;;;;;;18.66;100.00;99332.36;1668563;85;20133;-72
2022/05/15 06:51:28;;;;;;;;;;;;;;;18.58;100.00;99315.78;1668422;86;20188;-68
2022/05/15 06:53:56;;;;;;;;;;;;;;;18.70;100.00;99305.64;1668507;86;20138;-67
2022/05/15 06:59:08;;;;;;;;;;;;;;;18.72;100.00;99341.82;1668676;86;20129;-75
2022/05/15 07:01:35;;;;;;;;;;;;;;;18.51;100.00;99325.49;1668246;86;20142;-74
2022/05/15 07:04:02;;;;;;;;;;;;;;;18.48;100.00;99315.56;1687185;85;20111;-73
2022/05/15 07:06:30;;;;;;;;;;;;;;;18.63;100.00;99307.69;1726829;82;20107;-72
2022/05/15 07:08:57;;;;;;;;;;;;;;;18.77;100.00;99337.00;1751674;81;20367;-73
2022/05/15 07:11:24;;;;;;;;;;;;;;;18.73;100.00;99344.02;1749159;82;20107;-73
2022/05/15 07:13:53;;;;;;;;;;;;;;;18.84;100.00;99334.98;1720277;83;20126;-75
2022/05/15 07:16:19;;;;;;;;;;;;;;;19.16;100.00;99331.23;1761785;81;20114;-74
2022/05/15 07:18:46;;;;;;;;;;;;;;;19.41;100.00;99335.53;1720324;83;20137;-74
2022/05/15 07:21:13;;;;;;;;;;;;;;;19.60;100.00;99332.55;1761822;81;20102;-74
2022/05/15 07:23:41;;;;;;;;;;;;;;;19.54;100.00;99357.69;1720257;83;20481;-76
2022/05/15 07:26:08;;;;;;;;;;;;;;;19.41;100.00;99356.09;1761533;81;20106;-74
2022/05/15 07:28:35;;;;;;;;;;;;;;;19.21;100.00;99366.66;1720084;83;20109;-73
2022/05/15 07:31:01;;;;;;;;;;;;;;;18.99;100.00;99350.06;1754327;81;20131;-73
2022/05/15 07:33:28;;;;;;;;;;;;;;;19.16;100.00;99331.78;1751731;81;20106;-72
2022/05/15 07:35:55;;;;;;;;;;;;;;;19.52;100.00;99332.43;1750976;82;20147;-73
2022/05/15 07:38:22;;;;;;;;;;;;;;;19.72;100.00;99360.73;1751415;81;20107;-72
2022/05/15 07:40:49;;;;;;;;;;;;;;;19.68;100.00;99379.60;1751199;82;20130;-73
2022/05/15 07:43:16;;;;;;;;;;;;;;;19.46;100.00;99407.42;1751292;81;20106;-73
2022/05/15 07:45:43;;;;;;;;;;;;;;;19.10;100.00;99460.16;1751519;81;20133;-73
2022/05/15 07:48:10;;;;;;;;;;;;;;;19.05;100.00;99480.59;1751335;81;20103;-72
2022/05/15 07:50:38;;;;;;;;;;;;;;;19.10;100.00;99533.59;1751145;81;20114;-72
2022/05/15 07:53:05;;;;;;;;;;;;;;;19.15;100.00;99550.70;1751437;81;20432;-73
2022/05/15 07:55:32;;;;;;;;;;;;;;;19.10;100.00;99573.32;1734746;82;20123;-72
2022/05/15 07:57:59;;;;;;;;;;;;;;;18.96;100.00;99597.41;1751501;82;20205;-72
2022/05/15 08:00:26;;;;;;;;;;;;;;;19.00;100.00;99621.05;1751936;82;20107;-74
2022/05/15 08:03:08;;;;;;;;;;;;;;;19.24;100.00;99636.13;1752384;81;20106;-72
2022/05/15 08:08:22;;;;;;;;;;;;;;;19.41;100.00;99656.28;1641416;88;20495;-75
2022/05/15 08:10:49;;;;;;;;;;;;;;;19.45;100.00;99661.57;1641130;86;20108;-75
2022/05/15 08:13:21;;;;;;;;;;;;;;;19.66;100.00;99664.25;1641219;86;20116;-71
2022/05/15 08:15:48;;;;;;;;;;;;;;;19.86;100.00;99676.77;1641104;88;20452;-72
2022/05/15 08:23:49;;;;;;;;;;;;;;;20.42;100.00;99685.34;1641270;88;20441;-70
2022/05/15 08:26:16;;;;;;;;;;;;;;;20.80;100.00;99688.83;1618952;87;20134;-73
2022/05/15 08:28:43;;;;;;;;;;;;;;;20.98;100.00;99696.56;1619313;88;20145;-73
2022/05/15 08:31:09;;;;;;;;;;;;;;;21.08;100.00;99691.80;1610871;89;20135;-74
2022/05/15 08:33:36;;;;;;;;;;;;;;;21.15;100.00;99702.91;1585588;89;20391;-74
2022/05/15 08:36:06;;;;;;;;;;;;;;;21.07;100.00;99714.34;1585742;91;20106;-73
2022/05/15 08:38:32;;;;;;;;;;;;;;;21.15;100.00;99713.91;1586027;91;20134;-73
2022/05/15 08:41:21;;;;;;;;;;;;;;;21.11;84.64;99721.55;1585718;91;20419;-73
2022/05/15 08:43:57;;;;;;;;;;;;;;;20.83;91.93;99722.69;1585991;91;20151;-75
2022/05/15 08:46:44;;;;;;;;;;;;;;;20.93;100.00;99717.94;1565971;91;20131;-69
2022/05/15 08:49:15;;;;;;;;;;;;;;;21.30;100.00;99713.34;1585636;91;20483;-73
2022/05/15 08:51:47;;;;;;;;;;;;;;;21.62;100.00;99708.66;1585666;91;20151;-75
2022/05/15 08:54:13;;;;;;;;;;;;;;;21.96;100.00;99706.66;1585663;91;20189;-73
2022/05/15 08:56:46;;;;;;;;;;;;;;;22.11;94.40;99715.65;1585714;91;20415;-76
2022/05/15 08:59:29;;;;;;;;;;;;;;;22.36;96.23;99710.21;1592891;88;20130;-74
2022/05/15 09:01:57;;;;;;;;;;;;;;;22.61;92.55;99707.47;1634906;88;20116;-72
2022/05/15 09:04:26;;;;;;;;;;;;;;;22.70;85.57;99711.42;1612612;87;22084;-71
2022/05/15 09:07:11;;;;;;;;;;;;;;;22.69;77.23;99716.66;1634576;88;20192;-75
2022/05/15 09:09:50;;;;;;;;;;;;;;;22.50;72.31;99716.16;1594694;89;20120;-74
2022/05/15 09:12:20;;;;;;;;;;;;;;;22.30;68.92;99714.00;1576802;90;20140;-76
2022/05/15 09:15:01;;;;;;;;;;;;;;;22.31;69.41;99712.90;1519869;93;20106;-74
2022/05/15 09:17:37;;;;;;;;;;;;;;;22.49;67.85;99709.83;1542405;93;20101;-70
2022/05/15 09:20:09;;;;;;;;;;;;;;;22.52;65.98;99713.98;1542463;93;20173;-73
2022/05/15 09:22:45;;;;;;;;;;;;;;;22.27;62.06;99714.52;1473558;97;20136;-75
2022/05/15 09:25:15;;;;;;;;;;;;;;;22.12;67.25;99715.12;1470856;98;20436;-73
2022/05/15 09:28:00;;;;;;;;;;;;;;;22.04;61.85;99715.56;1448776;99;20139;-72
2022/05/15 09:30:39;;;;;;;;;;;;;;;21.84;67.98;99725.20;1449194;98;20460;-73
2022/05/15 09:33:06;;;;;;;;;;;;;;;21.72;76.22;99715.66;1432988;99;20136;-73
2022/05/15 09:35:36;;;;;;;;;;;;;;;21.94;83.74;99714.89;1433047;100;20140;-72
2022/05/15 09:43:39;;;;;;;;;;;;;;;22.42;85.96;99719.39;1432795;100;20162;-74
2022/05/15 09:46:14;;;;;;;;;;;;;;;22.50;91.96;99718.36;1433000;100;20140;-73
2022/05/15 09:48:53;;;;;;;;;;;;;;;22.77;89.29;99715.35;1432949;100;20213;-73
2022/05/15 09:51:43;;;;;;;;;;;;;;;23.09;84.28;99711.31;1433961;100;20141;-74
2022/05/15 09:54:31;;;;;;;;;;;;;;;23.42;82.49;99706.60;1433495;100;20144;-72
2022/05/15 09:57:22;;;;;;;;;;;;;;;23.67;72.80;99708.18;1388809;104;20122;-73
2022/05/15 10:00:00;;;;;;;;;;;;;;;23.49;67.00;99712.72;1388697;104;20118;-70
2022/05/15 10:02:46;;;;;;;;;;;;;;;23.36;66.81;99709.88;1443300;98;20129;-75
2022/05/15 10:05:26;;;;;;;;;;;;;;;23.23;70.07;99707.55;1434618;100;20212;-74
2022/05/15 10:08:11;;;;;;;;;;;;;;;23.38;71.55;99705.48;1445490;99;20215;-72
2022/05/15 10:10:44;;;;;;;;;;;;;;;23.41;67.43;99709.06;1486920;97;20110;-73
2022/05/15 10:13:31;;;;;;;;;;;;;;;23.26;69.08;99701.52;1518735;95;20155;-72
2022/05/15 10:16:13;;;;;;;;;;;;;;;23.16;72.68;99705.55;1519029;93;20115;-73
2022/05/15 10:19:08;;;;;;;;;;;;;;;22.97;73.50;99708.68;1452025;98;20159;-72
2022/05/15 10:21:44;;;;;;;;;;;;;;;22.95;71.35;99703.98;1439292;100;20156;-72
2022/05/15 10:24:14;;;;;;;;;;;;;;;22.92;78.80;99704.48;1420268;101;20169;-72
2022/05/15 10:26:54;;;;;;;;;;;;;;;22.72;80.29;99709.26;1451480;98;20488;-72
2022/05/15 10:29:58;;;;;;;;;;;;;;;22.38;79.18;99708.03;1460328;98;20227;-73
2022/05/15 10:32:31;;;;;;;;;;;;;;;22.04;82.32;99712.25;1460379;98;20164;-74
2022/05/15 10:34:58;;;;;;;;;;;;;;;21.63;86.13;99711.68;1452078;98;20135;-74
2022/05/15 10:37:31;;;;;;;;;;;;;;;21.39;89.78;99709.64;1448284;99;20124;-72
2022/05/15 10:40:20;;;;;;;;;;;;;;;21.17;94.85;99709.54;1427105;96;20423;-73
2022/05/15 10:42:59;;;;;;;;;;;;;;;20.91;97.47;99706.88;1475601;97;20131;-72
2022/05/15 10:45:36;;;;;;;;;;;;;;;20.72;96.36;99709.03;1447584;97;20123;-72
2022/05/15 10:48:16;;;;;;;;;;;;;;;20.62;98.60;99706.36;1420085;100;20434;-72
2022/05/15 10:50:52;;;;;;;;;;;;;;;20.36;97.88;99699.52;1452358;98;20112;-71
2022/05/15 10:59:53;;;;;;;;;;;;;;;20.07;100.00;99693.97;1423550;101;20128;-73
2022/05/15 11:02:26;;;;;;;;;;;;;;;20.75;100.00;99696.15;1423575;101;20194;-70
2022/05/15 11:04:59;;;;;;;;;;;;;;;21.36;100.00;99702.70;1467292;97;20118;-72
2022/05/15 11:07:38;;;;;;;;;;;;;;;21.58;99.53;99706.09;1491323;96;20433;-73
2022/05/15 11:10:21;;;;;;;;;;;;;;;21.30;100.00;99698.23;1472593;97;20124;-73
2022/05/15 11:13:09;;;;;;;;;;;;;;;21.16;100.00;99705.97;1442765;98;20163;-72
2022/05/15 11:15:48;;;;;;;;;;;;;;;20.93;100.00;99700.59;1412470;98;20138;-72
2022/05/15 11:18:31;;;;;;;;;;;;;;;20.63;100.00;99700.34;1451873;99;20137;-73
2022/05/15 11:21:01;;;;;;;;;;;;;;;20.24;100.00;99698.17;1456283;97;20160;-73
2022/05/15 11:23:47;;;;;;;;;;;;;;;19.91;100.00;99700.20;1432555;100;20129;-73
2022/05/15 11:26:30;;;;;;;;;;;;;;;19.62;100.00;99696.49;1474843;97;20456;-70
2022/05/15 11:28:59;;;;;;;;;;;;;;;19.39;100.00;99705.03;1465048;98;20137;-71
2022/05/15 11:31:29;;;;;;;;;;;;;;;19.09;100.00;99701.00;1441344;100;20134;-73
2022/05/15 11:33:58;;;;;;;;;;;;;;;18.82;100.00;99693.71;1435709;100;20232;-73
2022/05/15 11:36:29;;;;;;;;;;;;;;;18.64;100.00;99695.41;1435622;100;20162;-73
2022/05/15 11:39:05;;;;;;;;;;;;;;;18.47;100.00;99688.39;1418965;100;20124;-74
2022/05/15 11:41:38;;;;;;;;;;;;;;;18.34;100.00;99688.05;1448170;95;20115;-73
2022/05/15 11:44:18;;;;;;;;;;;;;;;18.16;100.00;99680.66;1506368;95;20138;-73
2022/05/15 11:46:49;;;;;;;;;;;;;;;18.06;100.00;99681.77;1517998;92;20141;-72
2022/05/15 11:49:29;;;;;;;;;;;;;;;18.15;100.00;99673.54;1554249;92;20158;-71
2022/05/15 11:52:02;;;;;;;;;;;;;;;18.26;100.00;99667.00;1546548;93;20128;-72
2022/05/15 11:54:30;;;;;;;;;;;;;;;18.29;100.00;99665.14;1572506;91;20106;-74
2022/05/15 11:56:57;;;;;;;;;;;;;;;18.26;100.00;99669.73;1598506;90;20123;-72
2022/05/15 11:59:32;;;;;;;;;;;;;;;18.19;100.00;99667.90;1598799;90;20120;-72
2022/05/15 12:02:04;;;;;;;;;;;;;;;18.11;100.00;99665.47;1598446;90;20147;-73
2022/05/15 12:04:37;;;;;;;;;;;;;;;17.96;100.00;99664.50;1596055;88;20144;-71
2022/05/15 12:07:11;;;;;;;;;;;;;;;17.75;100.00;99667.67;1585251;90;20116;-72
2022/05/15 12:09:41;;;;;;;;;;;;;;;17.69;100.00;99657.63;1610234;88;20131;-72
2022/05/15 12:12:32;;;;;;;;;;;;;;;17.78;100.00;99657.11;1592126;90;20153;-72
2022/05/15 12:15:06;;;;;;;;;;;;;;;17.82;100.00;99653.39;1592229;90;20278;-72
2022/05/15 12:17:37;;;;;;;;;;;;;;;17.87;100.00;99654.94;1592179;90;20159;-74
2022/05/15 12:20:30;;;;;;;;;;;;;;;17.92;100.00;99654.23;1592494;90;20119;-72
2022/05/15 12:23:06;;;;;;;;;;;;;;;17.84;100.00;99653.99;1592116;90;20110;-73
2022/05/15 12:25:37;;;;;;;;;;;;;;;17.81;100.00;99651.19;1592273;90;20395;-72
2022/05/15 12:31:14;;;;;;;;;;;;;;;17.91;100.00;99648.48;1599186;89;20139;-70
2022/05/15 12:33:40;;;;;;;;;;;;;;;17.80;100.00;99654.16;1668349;86;20137;-74
2022/05/15 12:36:12;;;;;;;;;;;;;;;17.68;100.00;99655.97;1668343;86;20169;-73
2022/05/15 12:38:41;;;;;;;;;;;;;;;17.62;100.00;99649.52;1668294;86;20152;-69
2022/05/15 12:41:11;;;;;;;;;;;;;;;17.62;100.00;99646.78;1661801;86;20154;-72
2022/05/15 12:43:42;;;;;;;;;;;;;;;17.65;100.00;99653.14;1613374;89;20138;-72
2022/05/15 12:46:25;;;;;;;;;;;;;;;17.67;100.00;99641.98;1613930;88;20118;-73
2022/05/15 12:48:51;;;;;;;;;;;;;;;17.69;100.00;99640.71;1613293;88;20171;-71
2022/05/15 12:51:27;;;;;;;;;;;;;;;17.73;100.00;99641.09;1652692;85;20111;-73
2022/05/15 12:53:54;;;;;;;;;;;;;;;17.76;100.00;99641.47;1678127;85;20099;-73
2022/05/15 12:56:32;;;;;;;;;;;;;;;17.85;100.00;99631.06;1680432;84;20099;-73
2022/05/15 12:59:02;;;;;;;;;;;;;;;17.96;100.00;99633.59;1642839;87;20165;-73
2022/05/15 13:01:31;;;;;;;;;;;;;;;18.12;100.00;99631.58;1624325;88;20101;-73
2022/05/15 13:04:00;;;;;;;;;;;;;;;18.29;100.00;99622.72;1624480;88;20110;-71
2022/05/15 13:06:29;;;;;;;;;;;;;;;18.50;100.00;99631.81;1634381;88;20133;-74
2022/05/15 13:08:59;;;;;;;;;;;;;;;18.58;100.00;99625.98;1634292;88;20161;-73
2022/05/15 13:11:43;;;;;;;;;;;;;;;18.68;100.00;99619.95;1656301;86;20121;-73
2022/05/15 13:14:28;;;;;;;;;;;;;;;18.95;100.00;99608.05;1633678;88;20105;-73
2022/05/15 13:16:56;;;;;;;;;;;;;;;19.22;100.00;99608.95;1633907;85;20109;-74
2022/05/15 13:19:34;;;;;;;;;;;;;;;19.63;100.00;99617.27;1633868;88;20132;-72
2022/05/15 13:22:03;;;;;;;;;;;;;;;19.94;100.00;99622.91;1633969;88;20462;-70
2022/05/15 13:24:31;;;;;;;;;;;;;;;20.23;100.00;99629.23;1634351;88;20289;-73
2022/05/15 13:26:58;;;;;;;;;;;;;;;20.34;100.00;99626.70;1634118;88;20143;-72